Time;durP1;ratioP1;P1;durP2;ratioP2;P2;SDS_P1;SDS_P2;PMS_P1;PMS_P2;Temp;Humidity;BMP_temperature;BMP_pressure;BME280_temperature;BME280_humidity;BME280_pressure;Samples;Min_cycle;Max_cycle;Signal;HPM_P1;HPM_P2
2023/05/22 00:02:22;;;;;;;10.60;10.30;;;15.90;99.90;;;;;;6230984;22;20229;-81
2023/05/22 00:04:51;;;;;;;10.38;10.07;;;15.90;99.90;;;;;;6230589;23;20238;-81
2023/05/22 00:07:19;;;;;;;10.38;10.07;;;15.90;99.90;;;;;;6230580;23;20205;-81
2023/05/22 00:09:48;;;;;;;10.50;10.20;;;15.80;99.90;;;;;;6230312;23;20221;-80
2023/05/22 00:12:16;;;;;;;10.63;10.32;;;15.80;99.90;;;;;;6230377;23;20257;-81
2023/05/22 00:14:43;;;;;;;10.57;10.27;;;15.80;99.90;;;;;;6230697;23;20190;-80
2023/05/22 00:17:13;;;;;;;10.48;10.18;;;15.70;99.90;;;;;;6229697;23;20226;-80
2023/05/22 00:19:41;;;;;;;10.60;10.30;;;15.70;99.90;;;;;;6231016;23;20243;-81
2023/05/22 00:22:10;;;;;;;10.48;10.18;;;15.70;99.90;;;;;;6232085;23;20203;-80
2023/05/22 00:24:38;;;;;;;10.75;10.45;;;15.70;99.90;;;;;;6232217;23;20202;-80
2023/05/22 00:27:08;;;;;;;10.60;10.30;;;15.70;99.90;;;;;;6231434;23;21032;-82
2023/05/22 00:29:35;;;;;;;10.70;10.40;;;15.60;99.90;;;;;;6231588;23;20202;-81
2023/05/22 00:32:03;;;;;;;10.40;10.10;;;15.60;99.90;;;;;;6230661;23;20222;-81
2023/05/22 00:34:30;;;;;;;10.70;10.40;;;15.50;99.90;;;;;;6230897;23;20206;-81
2023/05/22 00:36:59;;;;;;;10.68;10.38;;;15.50;99.90;;;;;;6231258;23;20253;-80
2023/05/22 00:39:26;;;;;;;11.00;10.70;;;15.40;99.90;;;;;;6240618;23;20257;-81
2023/05/22 00:41:54;;;;;;;10.70;10.40;;;15.40;99.90;;;;;;6231699;23;20253;-82
2023/05/22 00:44:23;;;;;;;10.60;10.30;;;15.40;99.90;;;;;;6231296;23;20207;-81
2023/05/22 00:46:56;;;;;;;10.60;10.30;;;15.40;99.90;;;;;;6230758;23;20194;-82
2023/05/22 00:49:23;;;;;;;10.55;10.25;;;15.30;99.90;;;;;;6230889;23;20266;-83
2023/05/22 00:51:52;;;;;;;10.27;9.98;;;15.30;99.90;;;;;;6234911;23;20202;-81
2023/05/22 00:54:28;;;;;;;10.52;10.23;;;15.30;99.90;;;;;;6235965;23;20194;-81
2023/05/22 00:56:56;;;;;;;10.15;9.85;;;15.20;99.90;;;;;;6235750;23;20206;-81
2023/05/22 00:59:25;;;;;;;10.40;10.10;;;15.20;99.90;;;;;;6234109;23;20202;-81
2023/05/22 01:01:54;;;;;;;10.38;10.07;;;15.20;99.90;;;;;;6234988;23;20202;-81
2023/05/22 01:04:26;;;;;;;10.35;10.05;;;15.10;99.90;;;;;;6236455;23;20195;-81
2023/05/22 01:06:54;;;;;;;10.57;10.27;;;15.10;99.90;;;;;;6231136;23;20258;-82
2023/05/22 01:09:21;;;;;;;10.43;10.13;;;15.10;99.90;;;;;;6231907;23;20199;-81
2023/05/22 01:12:00;;;;;;;10.25;9.95;;;15.00;99.90;;;;;;6231398;23;20206;-79
2023/05/22 01:14:42;;;;;;;10.43;10.13;;;15.00;99.90;;;;;;6232404;23;20206;-81
2023/05/22 01:17:23;;;;;;;10.55;10.25;;;15.00;99.90;;;;;;6231487;23;20262;-80
2023/05/22 01:20:09;;;;;;;10.48;10.18;;;15.00;99.90;;;;;;6232576;23;20198;-81
2023/05/22 01:23:24;;;;;;;10.55;10.25;;;14.90;99.90;;;;;;6231567;23;20210;-81
2023/05/22 01:26:20;;;;;;;10.48;10.18;;;15.00;99.90;;;;;;6231903;23;20198;-79
2023/05/22 01:29:14;;;;;;;10.65;10.35;;;14.90;99.90;;;;;;6231994;23;20241;-81
2023/05/22 01:31:46;;;;;;;10.55;10.25;;;14.90;99.90;;;;;;6231326;23;20203;-82
2023/05/22 01:34:16;;;;;;;10.60;10.30;;;14.80;99.90;;;;;;6232533;23;20205;-82
2023/05/22 01:36:46;;;;;;;10.50;10.20;;;14.80;99.90;;;;;;6250289;22;20222;-81
2023/05/22 01:39:15;;;;;;;10.88;10.57;;;14.70;99.90;;;;;;6248975;23;20242;-81
2023/05/22 01:41:44;;;;;;;10.90;10.60;;;14.70;99.90;;;;;;6249007;22;20183;-81
2023/05/22 01:44:12;;;;;;;10.73;10.43;;;14.70;99.90;;;;;;6249235;23;20199;-80
2023/05/22 01:46:44;;;;;;;10.68;10.38;;;14.70;99.90;;;;;;6247835;22;20199;-80
2023/05/22 01:49:13;;;;;;;10.95;10.65;;;14.60;99.90;;;;;;6235793;23;20198;-80
2023/05/22 01:51:51;;;;;;;10.70;10.40;;;14.60;99.90;;;;;;6233221;23;20203;-80
2023/05/22 01:54:30;;;;;;;10.80;10.50;;;14.60;99.90;;;;;;6235163;23;20187;-81
2023/05/22 01:57:08;;;;;;;10.68;10.38;;;14.60;99.90;;;;;;6234840;23;20202;-81
2023/05/22 01:59:44;;;;;;;10.90;10.60;;;14.60;99.90;;;;;;6233744;23;20230;-80
2023/05/22 02:02:14;;;;;;;10.73;10.43;;;14.60;99.90;;;;;;6234644;23;20250;-81
2023/05/22 02:04:56;;;;;;;10.70;10.40;;;14.60;99.90;;;;;;6239302;22;20218;-80
2023/05/22 02:07:25;;;;;;;10.60;10.30;;;14.50;99.90;;;;;;6240570;23;20191;-81
2023/05/22 02:09:56;;;;;;;10.63;10.32;;;14.50;99.90;;;;;;6239934;23;20195;-80
2023/05/22 02:12:24;;;;;;;10.70;10.40;;;14.50;99.90;;;;;;6242146;23;20194;-80
2023/05/22 02:14:52;;;;;;;10.43;10.13;;;14.50;99.90;;;;;;6236549;23;20222;-80
2023/05/22 02:17:22;;;;;;;10.80;10.50;;;14.50;99.90;;;;;;6235567;23;20258;-81
2023/05/22 02:19:53;;;;;;;10.82;10.52;;;14.50;99.90;;;;;;6233414;23;20221;-81
2023/05/22 02:22:21;;;;;;;10.90;10.60;;;14.50;99.90;;;;;;6233979;23;20214;-80
2023/05/22 02:24:50;;;;;;;10.65;10.35;;;14.50;99.90;;;;;;6232914;23;20203;-80
2023/05/22 02:27:21;;;;;;;10.85;10.55;;;14.50;99.90;;;;;;6233594;23;20202;-81
2023/05/22 02:29:49;;;;;;;10.70;10.40;;;14.50;99.90;;;;;;6232802;23;20254;-82
2023/05/22 02:32:17;;;;;;;10.65;10.35;;;14.50;99.90;;;;;;6233418;23;20259;-80
2023/05/22 02:34:47;;;;;;;10.48;10.18;;;14.50;99.90;;;;;;6233483;22;20282;-79
2023/05/22 02:37:17;;;;;;;10.55;10.25;;;14.50;99.90;;;;;;6242137;23;20203;-80
2023/05/22 02:39:45;;;;;;;10.40;10.10;;;14.60;99.90;;;;;;6233286;23;20286;-80
2023/05/22 02:42:13;;;;;;;10.40;10.10;;;14.60;99.90;;;;;;6235595;23;20214;-80
2023/05/22 02:44:48;;;;;;;10.35;10.05;;;14.60;99.90;;;;;;6232744;23;20214;-80
2023/05/22 02:47:15;;;;;;;10.38;10.07;;;14.70;99.90;;;;;;6233779;23;20198;-80
2023/05/22 02:49:45;;;;;;;10.70;10.40;;;14.70;99.90;;;;;;6232758;23;20223;-80
2023/05/22 02:52:12;;;;;;;10.43;10.13;;;14.70;99.90;;;;;;6232756;23;20211;-81
2023/05/22 02:54:44;;;;;;;10.77;10.48;;;14.70;99.90;;;;;;6233068;22;20202;-80
2023/05/22 02:57:12;;;;;;;10.55;10.25;;;14.80;99.90;;;;;;6232789;23;20218;-80
2023/05/22 02:59:43;;;;;;;10.88;10.57;;;14.80;99.90;;;;;;6232515;23;20234;-80
2023/05/22 03:02:12;;;;;;;10.95;10.65;;;14.80;99.90;;;;;;6232876;23;20247;-80
2023/05/22 03:04:40;;;;;;;11.45;11.05;;;14.80;99.90;;;;;;6234317;23;20254;-81
2023/05/22 03:07:14;;;;;;;11.27;10.90;;;14.90;99.90;;;;;;6235163;23;20199;-80
2023/05/22 03:09:43;;;;;;;11.50;11.10;;;15.00;99.90;;;;;;6233986;23;20195;-81
2023/05/22 03:12:16;;;;;;;11.07;10.77;;;15.00;99.90;;;;;;6234460;23;20195;-80
2023/05/22 03:14:50;;;;;;;11.20;10.90;;;15.00;99.90;;;;;;6234315;23;20195;-80
2023/05/22 03:17:17;;;;;;;11.10;10.80;;;15.00;99.90;;;;;;6234727;23;20199;-80
2023/05/22 03:19:47;;;;;;;11.05;10.75;;;15.00;99.90;;;;;;6235313;23;20285;-82
2023/05/22 03:22:17;;;;;;;11.13;10.82;;;15.10;99.90;;;;;;6234983;23;20214;-81
2023/05/22 03:24:46;;;;;;;11.40;11.00;;;15.10;99.90;;;;;;6235312;23;20302;-81
2023/05/22 03:27:16;;;;;;;11.55;11.15;;;15.10;99.90;;;;;;6234935;23;20218;-81
2023/05/22 03:29:44;;;;;;;10.82;10.52;;;15.10;99.90;;;;;;6235378;23;20279;-81
2023/05/22 03:32:12;;;;;;;11.13;10.82;;;15.10;99.90;;;;;;6235201;23;20195;-79
2023/05/22 03:34:42;;;;;;;11.05;10.75;;;15.10;99.90;;;;;;6236482;23;20218;-80
2023/05/22 03:37:12;;;;;;;11.00;10.70;;;15.10;99.90;;;;;;6242136;23;20199;-80
2023/05/22 03:39:42;;;;;;;10.73;10.43;;;15.10;99.90;;;;;;6241281;23;20203;-79
2023/05/22 03:42:17;;;;;;;10.85;10.55;;;15.10;99.90;;;;;;6244238;23;20262;-81
2023/05/22 03:44:44;;;;;;;10.57;10.27;;;15.10;99.90;;;;;;6245553;23;20187;-80
2023/05/22 03:47:12;;;;;;;10.75;10.45;;;15.10;99.90;;;;;;6244355;23;20202;-80
2023/05/22 03:49:41;;;;;;;10.75;10.45;;;15.10;99.90;;;;;;6245236;23;20258;-80
2023/05/22 03:52:10;;;;;;;10.60;10.30;;;15.10;99.90;;;;;;6246114;23;20187;-80
2023/05/22 03:54:39;;;;;;;10.80;10.50;;;15.10;99.90;;;;;;6245862;22;20250;-80
2023/05/22 03:57:07;;;;;;;10.57;10.27;;;15.10;99.90;;;;;;6245516;23;20206;-80
2023/05/22 03:59:41;;;;;;;11.13;10.82;;;15.10;99.90;;;;;;6244553;23;20253;-80
2023/05/22 04:02:11;;;;;;;10.77;10.48;;;15.00;99.90;;;;;;6244361;23;20221;-80
2023/05/22 04:04:39;;;;;;;10.75;10.45;;;15.00;99.90;;;;;;6241691;23;20195;-81
2023/05/22 04:07:08;;;;;;;10.98;10.68;;;15.00;99.90;;;;;;6243119;23;20210;-81
2023/05/22 04:09:36;;;;;;;11.13;10.82;;;14.90;99.90;;;;;;6238159;23;20234;-81
2023/05/22 04:12:04;;;;;;;11.00;10.70;;;14.90;99.90;;;;;;6234157;23;20226;-80
2023/05/22 04:14:33;;;;;;;10.88;10.57;;;14.80;99.90;;;;;;6234867;23;20254;-81
2023/05/22 04:17:02;;;;;;;11.00;10.70;;;14.70;99.90;;;;;;6235524;23;20250;-81
2023/05/22 04:19:30;;;;;;;10.95;10.65;;;14.60;99.90;;;;;;6233234;23;20226;-81
2023/05/22 04:21:59;;;;;;;10.90;10.60;;;14.60;99.90;;;;;;6232899;23;20198;-81
2023/05/22 04:24:26;;;;;;;10.93;10.63;;;14.60;99.90;;;;;;6233078;23;20205;-81
2023/05/22 04:26:54;;;;;;;10.70;10.40;;;14.60;99.90;;;;;;6233515;23;20191;-81
2023/05/22 04:29:23;;;;;;;10.83;10.53;;;14.50;99.90;;;;;;6234572;23;20237;-80
2023/05/22 04:31:53;;;;;;;11.30;10.90;;;14.50;99.90;;;;;;6239985;23;20210;-80
2023/05/22 04:34:22;;;;;;;11.23;10.82;;;14.50;99.90;;;;;;6237728;23;20278;-80
2023/05/22 04:36:51;;;;;;;11.18;10.80;;;14.50;99.90;;;;;;6233976;23;20203;-80
2023/05/22 04:39:21;;;;;;;10.90;10.60;;;14.50;99.90;;;;;;6233547;23;20281;-81
2023/05/22 04:41:51;;;;;;;10.88;10.57;;;14.50;99.90;;;;;;6232703;23;20203;-81
2023/05/22 04:44:21;;;;;;;10.98;10.68;;;14.60;99.90;;;;;;6233551;23;20222;-81
2023/05/22 04:46:49;;;;;;;10.57;10.27;;;14.60;99.90;;;;;;6233527;23;20198;-81
2023/05/22 04:49:19;;;;;;;10.70;10.40;;;14.70;99.90;;;;;;6235339;23;20198;-82
2023/05/22 04:51:54;;;;;;;10.30;10.00;;;14.80;99.90;;;;;;6233987;22;20202;-81
2023/05/22 04:54:22;;;;;;;10.13;9.82;;;14.80;99.90;;;;;;6233928;22;20213;-80
2023/05/22 04:56:50;;;;;;;10.25;9.95;;;14.90;99.90;;;;;;6233715;23;20191;-82
2023/05/22 04:59:18;;;;;;;10.35;10.05;;;15.00;99.90;;;;;;6231998;23;20230;-80
2023/05/22 05:01:46;;;;;;;10.25;9.95;;;15.10;99.90;;;;;;6234105;22;20202;-80
2023/05/22 05:04:17;;;;;;;10.48;10.18;;;15.10;99.90;;;;;;6232774;23;20232;-81
2023/05/22 05:06:48;;;;;;;10.40;10.10;;;15.20;99.90;;;;;;6234076;23;20249;-81
2023/05/22 05:09:15;;;;;;;10.27;9.98;;;15.30;99.90;;;;;;6233790;23;20194;-80
2023/05/22 05:11:44;;;;;;;10.30;10.00;;;15.40;99.90;;;;;;6233205;23;20281;-80
2023/05/22 05:14:11;;;;;;;11.07;10.77;;;15.50;99.90;;;;;;6231273;23;20408;-80
2023/05/22 05:16:39;;;;;;;10.60;10.30;;;15.60;99.90;;;;;;6231539;23;20195;-80
2023/05/22 05:19:07;;;;;;;10.52;10.23;;;15.70;99.90;;;;;;6230900;23;20194;-80
2023/05/22 05:21:35;;;;;;;10.45;10.15;;;15.90;99.90;;;;;;6230949;23;20222;-80
2023/05/22 05:24:05;;;;;;;10.57;10.27;;;16.00;99.90;;;;;;6235536;23;20197;-80
2023/05/22 05:26:33;;;;;;;10.60;10.30;;;16.00;99.90;;;;;;6229962;22;20219;-80
2023/05/22 05:29:00;;;;;;;10.48;10.18;;;16.10;99.90;;;;;;6229501;23;20203;-80
2023/05/22 05:31:28;;;;;;;10.45;10.15;;;16.20;99.90;;;;;;6230141;23;20210;-79
2023/05/22 05:33:57;;;;;;;10.45;10.15;;;16.30;99.90;;;;;;6230634;23;20247;-80
2023/05/22 05:36:25;;;;;;;10.50;10.20;;;16.40;99.90;;;;;;6230189;23;20285;-81
2023/05/22 05:38:53;;;;;;;10.60;10.30;;;16.50;99.90;;;;;;6229737;23;20206;-79
2023/05/22 05:41:24;;;;;;;10.63;10.32;;;16.70;99.90;;;;;;6227732;23;20183;-78
2023/05/22 05:43:51;;;;;;;10.50;10.20;;;16.80;99.90;;;;;;6229623;23;20195;-79
2023/05/22 05:46:19;;;;;;;10.65;10.35;;;16.90;99.90;;;;;;6242067;23;20199;-79
2023/05/22 05:48:50;;;;;;;10.70;10.40;;;17.10;99.90;;;;;;6243757;23;20226;-80
2023/05/22 05:51:19;;;;;;;10.60;10.30;;;17.30;99.90;;;;;;6242053;23;20249;-79
2023/05/22 05:53:49;;;;;;;10.50;10.20;;;17.40;99.90;;;;;;6232688;23;20223;-79
2023/05/22 05:56:17;;;;;;;10.40;10.10;;;17.60;99.90;;;;;;6230024;23;20195;-79
2023/05/22 05:58:48;;;;;;;10.68;10.38;;;17.70;99.90;;;;;;6227613;23;20222;-79
2023/05/22 06:01:17;;;;;;;10.30;10.00;;;17.90;99.90;;;;;;6227950;23;20305;-78
2023/05/22 06:03:46;;;;;;;10.23;9.93;;;18.00;99.90;;;;;;6229683;23;20457;-81
2023/05/22 06:06:16;;;;;;;10.40;10.10;;;18.20;99.90;;;;;;6231941;23;20246;-81
2023/05/22 06:08:46;;;;;;;10.48;10.18;;;18.40;99.90;;;;;;6231351;23;20291;-81
2023/05/22 06:11:15;;;;;;;10.63;10.32;;;18.60;99.90;;;;;;6230663;23;20187;-81
2023/05/22 06:13:44;;;;;;;10.27;9.98;;;18.70;99.90;;;;;;6230812;23;20207;-79
2023/05/22 06:16:14;;;;;;;10.63;10.32;;;18.80;99.90;;;;;;6232874;23;20261;-80
2023/05/22 06:18:45;;;;;;;10.60;10.30;;;19.00;99.90;;;;;;6235626;23;20183;-80
2023/05/22 06:21:13;;;;;;;10.50;10.20;;;19.10;99.90;;;;;;6241370;23;20198;-81
2023/05/22 06:23:41;;;;;;;10.40;10.10;;;19.30;99.90;;;;;;6232833;23;20218;-80
2023/05/22 06:26:12;;;;;;;10.50;10.20;;;19.30;99.90;;;;;;6235064;23;20250;-81
2023/05/22 06:28:41;;;;;;;10.80;10.50;;;19.50;99.90;;;;;;6230816;23;20202;-81
2023/05/22 06:31:10;;;;;;;10.57;10.27;;;19.50;99.90;;;;;;6230802;23;20223;-80
2023/05/22 06:33:41;;;;;;;10.70;10.40;;;19.70;99.90;;;;;;6230937;23;20202;-81
2023/05/22 06:36:10;;;;;;;10.43;10.13;;;19.90;99.90;;;;;;6230755;23;20187;-81
2023/05/22 06:38:39;;;;;;;10.60;10.30;;;20.00;99.90;;;;;;6229365;23;20265;-82
2023/05/22 06:41:08;;;;;;;10.70;10.40;;;20.10;99.90;;;;;;6229609;23;20203;-81
2023/05/22 06:44:14;;;;;;;10.80;10.50;;;20.10;99.90;;;;;;6220694;22;20234;-82
2023/05/22 06:54:18;;;;;;;10.35;10.05;;;20.30;99.90;;;;;;6145516;23;20212;-83
2023/05/22 07:01:47;;;;;;;10.50;10.20;;;20.40;99.90;;;;;;6113919;22;20211;-81
2023/05/22 07:09:48;;;;;;;10.50;10.20;;;20.90;99.90;;;;;;6132435;22;20202;-81
2023/05/22 07:22:05;;;;;;;;;;;;;;;;;;;;;
2023/05/22 07:30:01;;;;;;;10.50;10.20;;;21.70;99.90;;;;;;6037990;23;20206;-83
2023/05/22 09:28:32;;;;;;;;;;;;;;;;;;;;;
2023/05/22 09:38:42;;;;;;;;;;;;;;;;;;;;;
2023/05/22 09:41:30;;;;;;;11.23;10.93;;;28.70;99.90;;;;;;6199535;23;20208;-88
2023/05/22 09:44:33;;;;;;;;;;;;;;;;;;;;;
2023/05/22 09:47:35;;;;;;;11.10;10.80;;;28.60;99.90;;;;;;6201462;23;20238;-89
2023/05/22 09:50:24;;;;;;;11.23;10.93;;;28.70;99.90;;;;;;6202086;23;20195;-89
2023/05/22 09:53:11;;;;;;;11.43;11.05;;;28.80;99.90;;;;;;6201304;23;20206;-89
2023/05/22 09:56:14;;;;;;;11.05;10.75;;;28.70;99.90;;;;;;6201126;23;20254;-89
2023/05/22 10:06:35;;;;;;;;;;;;;;;;;;;;;
2023/05/22 10:09:29;;;;;;;11.70;11.30;;;29.70;99.90;;;;;;6203448;23;20254;-88
2023/05/22 10:19:44;;;;;;;;;;;;;;;;;;;;;
2023/05/22 10:33:56;;;;;;;11.23;10.93;;;30.40;99.90;;;;;;5918007;23;20207;-87
2023/05/22 10:37:28;;;;;;;11.23;10.93;;;30.50;99.90;;;;;;6080552;23;20232;-88
2023/05/22 10:44:13;;;;;;;11.30;11.00;;;30.90;99.90;;;;;;6042348;23;20193;-89
2023/05/22 11:09:16;;;;;;;11.40;11.10;;;29.50;99.90;;;;;;6101819;23;20228;-88
2023/05/22 11:27:59;;;;;;;;;;;;;;;;;;;;;
2023/05/22 11:30:46;;;;;;;10.95;10.65;;;30.10;99.90;;;;;;6128943;23;20197;-84
2023/05/22 12:16:54;;;;;;;10.65;10.35;;;31.30;99.90;;;;;;6179965;22;20194;-90
2023/05/22 12:46:14;;;;;;;11.10;10.80;;;32.80;99.90;;;;;;6122610;23;20231;-84
2023/05/22 12:48:42;;;;;;;11.18;10.88;;;32.60;99.90;;;;;;6234695;22;20197;-85
2023/05/22 12:51:12;;;;;;;11.35;11.05;;;32.70;99.90;;;;;;6238089;22;20191;-87
2023/05/22 12:53:41;;;;;;;11.25;10.95;;;33.30;99.90;;;;;;6235657;22;20195;-86
2023/05/22 12:56:12;;;;;;;10.82;10.52;;;33.90;99.90;;;;;;6235872;22;20194;-87
2023/05/22 12:58:42;;;;;;;11.27;10.98;;;34.20;99.90;;;;;;6234116;22;20238;-86
2023/05/22 13:03:57;;;;;;;11.70;11.30;;;34.60;99.90;;;;;;6234597;23;20201;-84
2023/05/22 13:06:26;;;;;;;11.63;11.23;;;34.70;99.90;;;;;;6236152;23;20218;-85
2023/05/22 13:08:54;;;;;;;11.63;11.23;;;34.90;99.90;;;;;;6236010;22;20205;-86
2023/05/22 13:11:25;;;;;;;11.70;11.30;;;35.30;99.90;;;;;;6235572;22;20199;-85
2023/05/22 13:13:54;;;;;;;11.38;11.07;;;35.10;99.90;;;;;;6235498;23;20197;-85
2023/05/22 13:16:58;;;;;;;11.00;10.70;;;35.20;99.90;;;;;;6236643;23;20262;-85
2023/05/22 13:19:40;;;;;;;11.13;10.82;;;35.10;99.90;;;;;;6244485;22;20171;-86
2023/05/22 13:22:09;;;;;;;11.40;11.10;;;35.20;99.90;;;;;;6242005;23;20191;-86
2023/05/22 13:24:37;;;;;;;11.43;11.13;;;35.20;99.90;;;;;;6240650;23;20208;-86
2023/05/22 13:27:06;;;;;;;11.70;11.30;;;35.30;99.90;;;;;;6240122;23;20222;-86
2023/05/22 13:29:34;;;;;;;11.90;11.50;;;35.50;99.90;;;;;;6237225;23;20195;-86
2023/05/22 13:32:39;;;;;;;11.63;11.23;;;35.50;99.90;;;;;;6236102;22;20199;-86
2023/05/22 13:35:12;;;;;;;11.32;11.02;;;35.70;99.90;;;;;;6241744;22;20214;-86
2023/05/22 13:37:48;;;;;;;11.20;10.90;;;35.80;99.90;;;;;;6237267;22;20195;-87
2023/05/22 13:40:18;;;;;;;11.05;10.75;;;35.80;99.90;;;;;;6235251;23;20207;-86
2023/05/22 13:42:46;;;;;;;11.02;10.73;;;35.50;99.90;;;;;;6235011;23;20198;-86
2023/05/22 13:45:15;;;;;;;11.40;11.10;;;34.70;99.90;;;;;;6235980;23;20235;-86
2023/05/22 13:50:58;;;;;;;11.30;11.00;;;33.80;99.90;;;;;;6234028;23;20209;-86
2023/05/22 13:53:31;;;;;;;11.20;10.90;;;33.60;99.90;;;;;;6235571;23;20187;-87
2023/05/22 13:56:07;;;;;;;11.02;10.73;;;33.20;99.90;;;;;;6235812;22;20199;-87
2023/05/22 13:58:36;;;;;;;11.10;10.80;;;32.80;99.90;;;;;;6235771;23;20225;-86
2023/05/22 14:01:07;;;;;;;10.45;10.15;;;32.30;99.90;;;;;;6237435;23;20191;-87
2023/05/22 14:06:21;;;;;;;10.75;10.45;;;32.30;99.90;;;;;;6236750;23;20243;-87
2023/05/22 14:08:50;;;;;;;10.60;10.30;;;32.00;99.90;;;;;;6239640;22;20269;-87
2023/05/22 14:14:02;;;;;;;10.90;10.60;;;31.90;99.90;;;;;;6234906;23;20217;-87
2023/05/22 14:22:27;;;;;;;11.43;11.13;;;32.00;99.90;;;;;;6236287;23;20226;-88
2023/05/22 14:27:38;;;;;;;11.02;10.73;;;32.70;99.90;;;;;;6234202;23;20201;-86
2023/05/22 14:32:54;;;;;;;10.90;10.60;;;32.80;99.90;;;;;;6234538;23;20202;-86
2023/05/22 14:38:28;;;;;;;10.85;10.55;;;32.90;99.90;;;;;;6239681;23;20218;-86
2023/05/22 14:40:57;;;;;;;10.60;10.30;;;33.20;99.90;;;;;;6237426;22;20233;-85
2023/05/22 14:43:27;;;;;;;10.57;10.27;;;33.30;99.90;;;;;;6234364;22;20199;-86
2023/05/22 14:45:58;;;;;;;10.80;10.50;;;33.30;99.90;;;;;;6234403;22;20211;-87
2023/05/22 14:48:44;;;;;;;10.60;10.30;;;33.30;99.90;;;;;;6233231;22;20203;-87
2023/05/22 14:51:14;;;;;;;10.90;10.60;;;33.50;99.90;;;;;;6232982;22;20191;-83
2023/05/22 14:53:42;;;;;;;10.90;10.60;;;33.60;99.90;;;;;;6232011;23;20183;-83
2023/05/22 14:56:11;;;;;;;10.80;10.50;;;33.90;99.90;;;;;;6231691;23;20203;-84
2023/05/22 14:58:42;;;;;;;10.73;10.43;;;34.20;99.90;;;;;;6233030;23;20246;-84
2023/05/22 15:01:10;;;;;;;11.15;10.85;;;34.40;99.90;;;;;;6231402;22;20198;-84
2023/05/22 15:03:39;;;;;;;11.20;10.90;;;34.50;99.90;;;;;;6232414;23;20188;-83
2023/05/22 15:06:18;;;;;;;11.38;11.07;;;34.70;99.90;;;;;;6230601;23;20198;-83
2023/05/22 15:08:52;;;;;;;11.10;10.80;;;35.00;99.90;;;;;;6231128;22;20250;-84
2023/05/22 15:11:31;;;;;;;11.40;11.10;;;34.00;99.50;;;;;;6229524;23;20199;-84
2023/05/22 15:16:42;;;;;;;11.15;10.85;;;33.30;99.90;;;;;;6231264;22;20206;-83
2023/05/22 15:19:11;;;;;;;11.07;10.77;;;33.00;99.90;;;;;;6230925;23;20194;-84
2023/05/22 15:21:40;;;;;;;11.00;10.70;;;32.70;99.90;;;;;;6231460;23;20195;-84
2023/05/22 15:26:57;;;;;;;10.75;10.45;;;33.50;99.90;;;;;;6230811;23;20199;-84
2023/05/22 15:29:27;;;;;;;10.90;10.60;;;33.80;99.90;;;;;;6231357;23;20249;-85
2023/05/22 15:31:56;;;;;;;10.77;10.48;;;34.10;99.90;;;;;;6231696;23;20206;-85
2023/05/22 15:34:26;;;;;;;11.07;10.77;;;34.20;99.90;;;;;;6241148;23;20546;-84
2023/05/22 15:36:54;;;;;;;11.00;10.70;;;34.10;99.90;;;;;;6231770;22;20203;-85
2023/05/22 15:39:27;;;;;;;10.90;10.60;;;34.20;99.90;;;;;;6241603;22;20191;-85
2023/05/22 15:41:57;;;;;;;10.60;10.30;;;34.20;99.90;;;;;;6239832;23;20238;-84
2023/05/22 15:44:25;;;;;;;10.45;10.15;;;34.50;99.90;;;;;;6234922;23;20194;-86
2023/05/22 15:46:53;;;;;;;10.20;9.90;;;34.30;99.60;;;;;;6233153;22;20207;-84
2023/05/22 15:49:22;;;;;;;10.35;10.05;;;34.40;99.90;;;;;;6235311;22;20201;-85
2023/05/22 15:51:52;;;;;;;10.32;10.02;;;34.50;99.30;;;;;;6235068;23;20191;-85
2023/05/22 15:54:22;;;;;;;10.10;9.80;;;34.20;99.90;;;;;;6234032;23;20202;-85
2023/05/22 15:59:37;;;;;;;10.80;10.50;;;33.40;99.50;;;;;;6231669;23;20199;-85
2023/05/22 16:02:08;;;;;;;11.23;10.93;;;33.30;99.90;;;;;;6236509;23;20195;-84
2023/05/22 16:04:36;;;;;;;10.98;10.68;;;33.20;99.90;;;;;;6232647;23;20218;-85
2023/05/22 16:07:06;;;;;;;10.77;10.48;;;33.10;99.90;;;;;;6232282;23;20242;-85
2023/05/22 16:09:35;;;;;;;10.80;10.50;;;32.70;99.90;;;;;;6240151;23;20195;-85
2023/05/22 16:12:24;;;;;;;11.07;10.77;;;32.40;99.90;;;;;;6232588;22;20198;-84
2023/05/22 16:14:54;;;;;;;11.00;10.70;;;32.10;99.90;;;;;;6232482;22;20203;-85
2023/05/22 16:17:22;;;;;;;10.80;10.50;;;31.80;99.90;;;;;;6232883;22;20225;-84
2023/05/22 16:19:52;;;;;;;10.60;10.30;;;31.70;99.90;;;;;;6233625;23;20202;-85
2023/05/22 16:22:22;;;;;;;10.65;10.35;;;31.70;99.90;;;;;;6232474;23;20207;-84
2023/05/22 16:24:51;;;;;;;10.70;10.40;;;31.70;99.90;;;;;;6231938;22;20191;-84
2023/05/22 16:27:29;;;;;;;10.52;10.23;;;32.00;99.90;;;;;;6232362;23;20203;-84
2023/05/22 16:30:01;;;;;;;10.63;10.32;;;32.30;99.90;;;;;;6232786;23;20214;-83
2023/05/22 16:32:31;;;;;;;11.00;10.70;;;32.50;99.90;;;;;;6238371;23;20353;-85
2023/05/22 16:34:59;;;;;;;11.30;11.00;;;32.60;99.90;;;;;;6231868;23;20285;-85
2023/05/22 16:37:27;;;;;;;11.40;11.10;;;33.00;99.90;;;;;;6233665;22;20195;-84
2023/05/22 16:39:57;;;;;;;11.20;10.90;;;33.30;99.90;;;;;;6231764;23;20205;-84
2023/05/22 16:42:29;;;;;;;11.20;10.90;;;33.50;99.90;;;;;;6232168;23;20761;-85
2023/05/22 16:44:56;;;;;;;11.30;11.00;;;33.60;99.90;;;;;;6232013;23;20203;-84
2023/05/22 16:47:25;;;;;;;11.10;10.80;;;33.70;99.90;;;;;;6232218;23;20245;-83
2023/05/22 16:49:53;;;;;;;10.80;10.50;;;33.70;99.90;;;;;;6231622;23;20206;-83
2023/05/22 16:52:24;;;;;;;10.90;10.60;;;33.90;99.70;;;;;;6231705;23;20191;-86
2023/05/22 16:54:53;;;;;;;10.70;10.40;;;34.00;99.90;;;;;;6232572;23;20203;-86
2023/05/22 16:57:22;;;;;;;10.60;10.30;;;34.00;99.90;;;;;;6232140;22;20194;-85
2023/05/22 16:59:52;;;;;;;10.60;10.30;;;34.00;99.90;;;;;;6233283;23;20199;-84
2023/05/22 17:02:22;;;;;;;10.50;10.20;;;34.10;99.80;;;;;;6236024;23;20266;-84
2023/05/22 17:04:50;;;;;;;10.88;10.57;;;34.10;99.80;;;;;;6237001;23;20198;-85
2023/05/22 17:07:18;;;;;;;11.20;10.90;;;34.10;99.90;;;;;;6237243;23;20195;-84
2023/05/22 17:09:50;;;;;;;11.27;10.98;;;34.10;99.90;;;;;;6235151;23;20269;-85
2023/05/22 17:12:19;;;;;;;11.35;11.05;;;34.30;99.90;;;;;;6238189;23;20199;-84
2023/05/22 17:14:49;;;;;;;11.30;11.00;;;34.50;99.90;;;;;;6235375;23;20195;-83
2023/05/22 17:17:20;;;;;;;11.02;10.73;;;34.70;99.60;;;;;;6234714;23;20229;-84
2023/05/22 17:22:36;;;;;;;10.55;10.25;;;34.70;98.80;;;;;;6231614;23;20207;-84
2023/05/22 17:25:48;;;;;;;10.77;10.48;;;34.50;98.40;;;;;;6230477;23;20195;-85
2023/05/22 17:28:30;;;;;;;10.90;10.60;;;34.70;99.50;;;;;;6151726;22;20202;-85
2023/05/22 17:30:58;;;;;;;10.80;10.50;;;34.50;98.00;;;;;;6240607;22;20210;-85
2023/05/22 17:33:28;;;;;;;10.80;10.50;;;34.60;98.80;;;;;;6235742;23;20199;-86
2023/05/22 17:35:56;;;;;;;10.70;10.40;;;34.60;99.50;;;;;;6234284;23;20209;-86
2023/05/22 17:38:23;;;;;;;10.65;10.35;;;34.50;99.40;;;;;;6235938;23;20199;-86
2023/05/22 17:40:53;;;;;;;10.68;10.38;;;34.40;99.90;;;;;;6238819;23;20230;-85
2023/05/22 17:43:23;;;;;;;11.38;11.07;;;34.20;99.90;;;;;;6236024;23;20207;-85
2023/05/22 17:45:53;;;;;;;11.30;11.00;;;33.70;99.60;;;;;;6232613;23;20195;-85
2023/05/22 17:48:22;;;;;;;11.05;10.75;;;33.70;99.30;;;;;;6231484;23;20199;-87
2023/05/22 17:50:54;;;;;;;11.23;10.93;;;33.40;99.00;;;;;;6231965;23;20195;-85
2023/05/22 17:53:21;;;;;;;11.20;10.90;;;32.70;99.40;;;;;;6232388;23;20256;-83
2023/05/22 17:55:51;;;;;;;10.90;10.60;;;32.70;99.40;;;;;;6232585;23;20207;-83
2023/05/22 17:58:20;;;;;;;10.82;10.52;;;32.40;99.70;;;;;;6232141;23;20202;-83
2023/05/22 18:00:48;;;;;;;10.82;10.52;;;32.10;99.90;;;;;;6234340;23;20199;-84
2023/05/22 18:03:19;;;;;;;11.10;10.80;;;32.00;99.90;;;;;;6232916;23;20206;-84
2023/05/22 18:05:47;;;;;;;11.07;10.77;;;31.70;99.90;;;;;;6233058;23;20187;-84
2023/05/22 18:11:07;;;;;;;11.05;10.75;;;31.50;99.90;;;;;;6232214;23;20194;-83
2023/05/22 18:13:35;;;;;;;10.93;10.63;;;31.40;99.90;;;;;;6233783;23;20259;-84
2023/05/22 18:16:04;;;;;;;10.82;10.52;;;31.20;99.90;;;;;;6233878;23;20198;-83
2023/05/22 18:18:34;;;;;;;10.75;10.45;;;31.00;99.90;;;;;;6234431;23;20222;-83
2023/05/22 18:21:04;;;;;;;10.70;10.40;;;30.80;99.90;;;;;;6234376;22;20209;-83
2023/05/22 18:23:35;;;;;;;10.60;10.30;;;30.60;99.90;;;;;;6234375;22;20265;-83
2023/05/22 18:26:03;;;;;;;10.43;10.13;;;30.30;99.90;;;;;;6240089;22;20207;-82
2023/05/22 18:28:32;;;;;;;10.15;9.85;;;30.00;99.90;;;;;;6233476;23;20242;-83
2023/05/22 18:31:01;;;;;;;10.50;10.20;;;29.80;99.90;;;;;;6234166;23;20226;-83
2023/05/22 18:33:32;;;;;;;10.38;10.07;;;29.50;99.90;;;;;;6234044;22;20202;-84
2023/05/22 18:36:00;;;;;;;10.00;9.70;;;29.30;99.90;;;;;;6241441;22;20211;-84